METAR Data
IDs: Format: Raw Decoded Include TAF

Data at: 2225 UTC 14 Dec 2018

METAR for:KSJC (San Jose Intl Arpt, CA, US)
Text:KSJC 142153Z 18012G18KT 10SM FEW001 SCT030 BKN040 17/10 A3007 RMK AO2 PK WND 20026/2136 SLP182 T01720100
Temperature: 17.2°C ( 63°F)
Dewpoint: 10.0°C ( 50°F) [RH = 63%]
Pressure (altimeter):30.07 inches Hg (1018.4 mb) [Sea level pressure: 1018.2 mb]
Winds:from the S (180 degrees) at 14 MPH (12 knots; 6.2 m/s) gusting to 21 MPH (18 knots; 9.3 m/s)
Visibility:10 or more sm (16+ km)
Ceiling:4000 feet AGL
Clouds: few clouds at 100 feet AGL, scattered clouds at 3000 feet AGL, broken clouds at 4000 feet AGL
Text:KSJC 142053Z 17013KT 10SM FEW014 SCT027 BKN033 16/10 A3008 RMK AO2 RAB05E20 SLP185 P0000 60000 T01560100 58005
Temperature: 15.6°C ( 60°F)
Dewpoint: 10.0°C ( 50°F) [RH = 69%]
Pressure (altimeter):30.08 inches Hg (1018.7 mb) [Sea level pressure: 1018.5 mb]
Winds:from the S (170 degrees) at 15 MPH (13 knots; 6.7 m/s)
Visibility:10 or more sm (16+ km)
Ceiling:3300 feet AGL
Clouds: few clouds at 1400 feet AGL, scattered clouds at 2700 feet AGL, broken clouds at 3300 feet AGL
Text:KSJC 141953Z 16009G17KT 10SM FEW010 BKN034 OVC070 17/09 A3009 RMK AO2 SLP188 T01670089
Temperature: 16.7°C ( 62°F)
Dewpoint: 8.9°C ( 48°F) [RH = 60%]
Pressure (altimeter):30.09 inches Hg (1019.0 mb) [Sea level pressure: 1018.8 mb]
Winds:from the SSE (160 degrees) at 10 MPH (9 knots; 4.6 m/s) gusting to 20 MPH (17 knots; 8.7 m/s)
Visibility:10 or more sm (16+ km)
Ceiling:3400 feet AGL
Clouds: few clouds at 1000 feet AGL, broken clouds at 3400 feet AGL, overcast cloud deck at 7000 feet AGL
Text:KSJC 141853Z 14010KT 10SM FEW020 BKN038 OVC100 16/08 A3012 RMK AO2 SLP199 T01610078
Temperature: 16.1°C ( 61°F)
Dewpoint: 7.8°C ( 46°F) [RH = 58%]
Pressure (altimeter):30.12 inches Hg (1020.1 mb) [Sea level pressure: 1019.9 mb]
Winds:from the SE (140 degrees) at 12 MPH (10 knots; 5.1 m/s)
Visibility:10 or more sm (16+ km)
Ceiling:3800 feet AGL
Clouds: few clouds at 2000 feet AGL, broken clouds at 3800 feet AGL, overcast cloud deck at 10000 feet AGL
Text:KSJC 141753Z 14007KT 10SM SCT024 BKN065 OVC110 16/07 A3010 RMK AO2 RAB20E34 PRESRR SLP191 P0000 60000 T01560067 10156 20078 53013
Temperature: 15.6°C ( 60°F)
Dewpoint: 6.7°C ( 44°F) [RH = 55%]
Pressure (altimeter):30.10 inches Hg (1019.4 mb) [Sea level pressure: 1019.1 mb]
Winds:from the SE (140 degrees) at 8 MPH (7 knots; 3.6 m/s)
Visibility:10 or more sm (16+ km)
Ceiling:6500 feet AGL
Clouds: scattered clouds at 2400 feet AGL, broken clouds at 6500 feet AGL, overcast cloud deck at 11000 feet AGL
Text:KSJC 141653Z 14014G20KT 10SM FEW024 BKN070 OVC110 14/06 A3003 RMK AO2 SLP168 T01440061
Temperature: 14.4°C ( 58°F)
Dewpoint: 6.1°C ( 43°F) [RH = 57%]
Pressure (altimeter):30.03 inches Hg (1017.0 mb) [Sea level pressure: 1016.8 mb]
Winds:from the SE (140 degrees) at 16 MPH (14 knots; 7.2 m/s) gusting to 23 MPH (20 knots; 10.3 m/s)
Visibility:10 or more sm (16+ km)
Ceiling:7000 feet AGL
Clouds: few clouds at 2400 feet AGL, broken clouds at 7000 feet AGL, overcast cloud deck at 11000 feet AGL
Text:KSJC 141553Z 15010KT 10SM FEW019 BKN065 OVC100 12/05 A3004 RMK AO2 SLP172 T01220050
Temperature: 12.2°C ( 54°F)
Dewpoint: 5.0°C ( 41°F) [RH = 61%]
Pressure (altimeter):30.04 inches Hg (1017.4 mb) [Sea level pressure: 1017.2 mb]
Winds:from the SSE (150 degrees) at 12 MPH (10 knots; 5.1 m/s)
Visibility:10 or more sm (16+ km)
Ceiling:6500 feet AGL
Clouds: few clouds at 1900 feet AGL, broken clouds at 6500 feet AGL, overcast cloud deck at 10000 feet AGL
Text:KSJC 141453Z 09009KT 10SM FEW004 BKN065 OVC100 11/06 A3006 RMK AO2 SLP178 T01060056 58004
Temperature: 10.6°C ( 51°F)
Dewpoint: 5.6°C ( 42°F) [RH = 71%]
Pressure (altimeter):30.06 inches Hg (1018.0 mb) [Sea level pressure: 1017.8 mb]
Winds:from the E (90 degrees) at 10 MPH (9 knots; 4.6 m/s)
Visibility:10 or more sm (16+ km)
Ceiling:6500 feet AGL
Clouds: few clouds at 400 feet AGL, broken clouds at 6500 feet AGL, overcast cloud deck at 10000 feet AGL
Text:KSJC 141353Z 22003KT 10SM FEW002 SCT080 BKN100 09/06 A3007 RMK AO2 SLP180 T00940056
Temperature: 9.4°C ( 49°F)
Dewpoint: 5.6°C ( 42°F) [RH = 77%]
Pressure (altimeter):30.07 inches Hg (1018.4 mb) [Sea level pressure: 1018.0 mb]
Winds:from the SW (220 degrees) at 3 MPH (3 knots; 1.5 m/s)
Visibility:10 or more sm (16+ km)
Ceiling:10000 feet AGL
Clouds: few clouds at 200 feet AGL, scattered clouds at 8000 feet AGL, broken clouds at 10000 feet AGL
Text:KSJC 141253Z AUTO 08003KT 10SM CLR 09/06 A3007 RMK AO2 SLP180 T00890056
Temperature: 8.9°C ( 48°F)
Dewpoint: 5.6°C ( 42°F) [RH = 80%]
Pressure (altimeter):30.07 inches Hg (1018.4 mb) [Sea level pressure: 1018.0 mb]
Winds:from the E (80 degrees) at 3 MPH (3 knots; 1.5 m/s)
Visibility:10 or more sm (16+ km)
Ceiling:at least 12,000 feet AGL
Clouds:sky clear below 12,000 feet AGL
QC Flag:automated observation with no human augmentation
Text:KSJC 141153Z AUTO 00000KT 10SM CLR 08/04 A3007 RMK AO2 SLP182 T00780044 10106 20061 58002
Temperature: 7.8°C ( 46°F)
Dewpoint: 4.4°C ( 40°F) [RH = 79%]
Pressure (altimeter):30.07 inches Hg (1018.4 mb) [Sea level pressure: 1018.2 mb]
Winds:calm
Visibility:10 or more sm (16+ km)
Ceiling:at least 12,000 feet AGL
Clouds:sky clear below 12,000 feet AGL
QC Flag:automated observation with no human augmentation
Text:KSJC 141053Z AUTO 14004KT 10SM CLR 07/04 A3007 RMK AO2 SLP181 T00670039
Temperature: 6.7°C ( 44°F)
Dewpoint: 3.9°C ( 39°F) [RH = 82%]
Pressure (altimeter):30.07 inches Hg (1018.4 mb) [Sea level pressure: 1018.1 mb]
Winds:from the SE (140 degrees) at 5 MPH (4 knots; 2.1 m/s)
Visibility:10 or more sm (16+ km)
Ceiling:at least 12,000 feet AGL
Clouds:sky clear below 12,000 feet AGL
QC Flag:automated observation with no human augmentation